< Typhoon 196312 1963 Season Typhoon 196314 >
Typhoon 196313 (FAYE)
General InformationTrack Information on Google Maps || Disaster Info.ResourceGoogle EarthGE AnimationAtom FeedGeoJSON
Detalied Best Track (Time Zone = UTC)
Year Month Day Hour Lat. Long. Pressure (hPa) Wind (kt) Class Image Chart
1963 8 28 00 9.1 157.1 1006 0 2 -- Chart
1963 8 28 06 9.0 156.0 1004 0 2 -- Chart
1963 8 28 12 9.0 155.0 1006 0 2 -- Chart
1963 8 28 18 8.9 153.5 1006 0 2 -- Chart
1963 8 29 00 9.0 152.0 1006 0 2 -- Chart
1963 8 29 06 9.4 150.8 1002 0 2 -- Chart
1963 8 29 12 10.0 149.4 1004 0 2 -- Chart
1963 8 29 18 10.4 148.0 1004 0 2 -- Chart
1963 8 30 00 11.0 146.5 1002 0 2 -- Chart
1963 8 30 06 11.2 145.1 1002 0 2 -- Chart
1963 8 30 12 11.5 143.5 1002 0 2 -- Chart
1963 8 30 18 11.7 142.0 1002 0 2 -- Chart
1963 8 31 00 11.6 140.4 1002 0 2 -- Chart
1963 8 31 06 12.2 139.9 1002 0 2 -- Chart
1963 8 31 12 12.4 139.4 1000 0 2 -- Chart
1963 8 31 18 12.7 139.1 1000 0 2 -- Chart
1963 9 1 00 12.8 138.7 998 0 2 -- Chart
1963 9 1 06 13.3 138.0 998 0 2 -- Chart
1963 9 1 12 13.7 137.0 996 0 2 -- Chart
1963 9 1 18 14.3 135.6 996 0 9 -- Chart
1963 9 2 00 14.7 134.0 994 0 9 -- Chart
1963 9 2 06 15.0 133.4 988 0 9 -- Chart
1963 9 2 12 15.4 132.5 985 0 9 -- Chart
1963 9 2 18 15.8 131.6 980 0 9 -- Chart
1963 9 3 00 16.4 130.8 980 0 9 -- Chart
1963 9 3 06 16.9 130.3 980 0 9 -- Chart
1963 9 3 12 17.7 128.9 980 0 9 -- Chart
1963 9 3 18 18.2 127.5 980 0 9 -- Chart
1963 9 4 00 18.7 126.6 975 0 9 -- Chart
1963 9 4 06 19.3 125.3 975 0 9 -- Chart
1963 9 4 12 19.8 123.7 975 0 9 -- Chart
1963 9 4 18 19.8 122.1 975 0 9 -- Chart
1963 9 5 00 20.0 121.0 970 0 9 -- Chart
1963 9 5 06 20.1 119.5 970 0 9 -- Chart
1963 9 5 12 20.0 118.4 970 0 9 -- Chart
1963 9 5 18 20.2 117.6 965 0 9 -- Chart
1963 9 6 00 20.3 116.7 960 0 9 -- Chart
1963 9 6 06 20.3 115.3 960 0 9 -- Chart
1963 9 6 12 20.4 115.2 960 0 9 -- Chart
1963 9 6 18 20.4 113.2 960 0 9 -- Chart
1963 9 7 00 20.5 112.2 960 0 9 -- Chart
1963 9 7 06 20.5 111.2 965 0 9 -- Chart
1963 9 7 12 20.5 110.3 970 0 9 -- Chart
1963 9 7 18 20.5 109.5 985 0 9 -- Chart
1963 9 8 00 20.5 108.8 990 0 9 -- Chart
1963 9 8 06 20.5 108.2 992 0 9 -- Chart
1963 9 8 12 20.5 107.5 994 0 9 -- Chart
1963 9 8 18 20.5 107.0 996 0 9 -- Chart
1963 9 9 00 20.3 106.5 995 0 9 -- Chart
1963 9 9 06 20.0 105.6 990 0 9 -- Chart
1963 9 9 12 20.0 105.0 992 0 9 -- Chart
1963 9 9 18 20.0 104.5 994 0 9 -- Chart
1963 9 10 00 20.0 104.0 994 0 2 -- Chart
1963 9 10 06 20.0 103.6 996 0 2 -- Chart
1963 9 10 12 20.0 103.2 998 0 2 -- Chart
1963 9 10 18 20.0 103.0 998 0 2 -- Chart
1963 9 11 00 20.0 102.8 1000 0 2 -- Chart
Japan Meteorological Agency Best Track Data | Correction Date : 1990-10-17
< Typhoon 196312 1963 Season Typhoon 196314 >

Help